Terminal Aerodrome Forecast
Issued by NWS

Home | Current Version | Previous Version | Text Only | Print | Product List | Glossary On
Versions: 1 2 3 4 5 6 7 8 9 10 11 12 13 14 15 16 17 18 19 20 21 22 23 24 25 26 27 28 29 30 31 32 33 34 35 36 37
000
FTUS45 KBOU 211536 AAA
TAFBJC
TAF AMD
KBJC 211536Z 2116/2212 36006KT P6SM SCT070 BKN140
     FM211800 08006KT P6SM SCT070 BKN120
     FM212100 12008KT P6SM SCT050 BKN070
      TEMPO 2122/2202 -SHRA BKN040
     FM220200 14006KT P6SM SCT035 OVC050 PROB30 2202/2206 -RA BKN035
     FM220800 35006KT P6SM SCT080 BKN140=

USA.gov is the U.S. government's official web portal to all federal, state and local government web resources and services.